sensor_id;sensor_type;location;lat;lon;timestamp;P1;durP1;ratioP1;P2;durP2;ratioP2
50225;SDS011;36113;50.742;6.432;2022-07-23T00:02:15;23.03;;;17.00;;
50225;SDS011;36113;50.742;6.432;2022-07-23T00:04:41;24.10;;;17.17;;
50225;SDS011;36113;50.742;6.432;2022-07-23T00:07:06;23.97;;;17.47;;
50225;SDS011;36113;50.742;6.432;2022-07-23T00:09:31;25.97;;;16.70;;
50225;SDS011;36113;50.742;6.432;2022-07-23T00:11:57;24.27;;;17.60;;
50225;SDS011;36113;50.742;6.432;2022-07-23T00:14:22;23.17;;;18.17;;
50225;SDS011;36113;50.742;6.432;2022-07-23T00:16:48;26.33;;;17.83;;
50225;SDS011;36113;50.742;6.432;2022-07-23T00:19:13;23.40;;;16.37;;
50225;SDS011;36113;50.742;6.432;2022-07-23T00:21:38;21.67;;;16.07;;
50225;SDS011;36113;50.742;6.432;2022-07-23T00:24:04;21.43;;;15.97;;
50225;SDS011;36113;50.742;6.432;2022-07-23T00:26:29;21.87;;;16.07;;
50225;SDS011;36113;50.742;6.432;2022-07-23T00:28:55;19.37;;;14.87;;
50225;SDS011;36113;50.742;6.432;2022-07-23T00:31:20;19.67;;;16.27;;
50225;SDS011;36113;50.742;6.432;2022-07-23T00:33:45;20.33;;;15.87;;
50225;SDS011;36113;50.742;6.432;2022-07-23T00:36:11;21.80;;;14.90;;
50225;SDS011;36113;50.742;6.432;2022-07-23T00:38:36;21.60;;;14.07;;
50225;SDS011;36113;50.742;6.432;2022-07-23T00:41:01;19.63;;;13.93;;
50225;SDS011;36113;50.742;6.432;2022-07-23T00:43:27;20.00;;;14.23;;
50225;SDS011;36113;50.742;6.432;2022-07-23T00:45:52;21.57;;;14.90;;
50225;SDS011;36113;50.742;6.432;2022-07-23T00:48:17;16.10;;;13.80;;
50225;SDS011;36113;50.742;6.432;2022-07-23T00:50:43;23.77;;;14.90;;
50225;SDS011;36113;50.742;6.432;2022-07-23T00:53:08;20.23;;;14.60;;
50225;SDS011;36113;50.742;6.432;2022-07-23T00:55:34;16.60;;;13.63;;
50225;SDS011;36113;50.742;6.432;2022-07-23T00:57:59;16.47;;;13.00;;
50225;SDS011;36113;50.742;6.432;2022-07-23T01:02:52;16.83;;;12.82;;
50225;SDS011;36113;50.742;6.432;2022-07-23T01:05:17;19.77;;;14.00;;
50225;SDS011;36113;50.742;6.432;2022-07-23T01:07:46;13.45;;;11.82;;
50225;SDS011;36113;50.742;6.432;2022-07-23T01:10:12;19.60;;;13.37;;
50225;SDS011;36113;50.742;6.432;2022-07-23T01:12:56;24.08;;;14.48;;
50225;SDS011;36113;50.742;6.432;2022-07-23T01:15:26;16.17;;;14.00;;
50225;SDS011;36113;50.742;6.432;2022-07-23T01:17:52;21.65;;;14.95;;
50225;SDS011;36113;50.742;6.432;2022-07-23T01:20:18;23.27;;;14.97;;
50225;SDS011;36113;50.742;6.432;2022-07-23T01:22:44;20.13;;;14.70;;
50225;SDS011;36113;50.742;6.432;2022-07-23T01:25:10;20.05;;;13.57;;
50225;SDS011;36113;50.742;6.432;2022-07-23T01:27:35;19.70;;;14.30;;
50225;SDS011;36113;50.742;6.432;2022-07-23T01:30:01;20.10;;;14.30;;
50225;SDS011;36113;50.742;6.432;2022-07-23T01:32:27;19.35;;;14.77;;
50225;SDS011;36113;50.742;6.432;2022-07-23T01:34:53;17.83;;;14.03;;
50225;SDS011;36113;50.742;6.432;2022-07-23T01:37:18;24.67;;;15.93;;
50225;SDS011;36113;50.742;6.432;2022-07-23T01:39:43;17.47;;;13.60;;
50225;SDS011;36113;50.742;6.432;2022-07-23T01:42:09;22.00;;;14.50;;
50225;SDS011;36113;50.742;6.432;2022-07-23T01:44:34;19.53;;;15.23;;
50225;SDS011;36113;50.742;6.432;2022-07-23T01:47:00;20.20;;;16.60;;
50225;SDS011;36113;50.742;6.432;2022-07-23T01:49:25;20.83;;;15.30;;
50225;SDS011;36113;50.742;6.432;2022-07-23T01:51:50;22.03;;;17.03;;
50225;SDS011;36113;50.742;6.432;2022-07-23T01:54:25;21.52;;;14.68;;
50225;SDS011;36113;50.742;6.432;2022-07-23T01:56:55;21.25;;;14.18;;
50225;SDS011;36113;50.742;6.432;2022-07-23T01:59:21;21.53;;;15.73;;
50225;SDS011;36113;50.742;6.432;2022-07-23T02:01:47;14.80;;;12.98;;
50225;SDS011;36113;50.742;6.432;2022-07-23T02:04:13;16.30;;;13.40;;
50225;SDS011;36113;50.742;6.432;2022-07-23T02:06:39;15.30;;;13.13;;
50225;SDS011;36113;50.742;6.432;2022-07-23T02:09:04;16.07;;;14.00;;
50225;SDS011;36113;50.742;6.432;2022-07-23T02:11:29;20.27;;;14.90;;
50225;SDS011;36113;50.742;6.432;2022-07-23T02:13:55;18.90;;;14.77;;
50225;SDS011;36113;50.742;6.432;2022-07-23T02:16:20;21.73;;;14.43;;
50225;SDS011;36113;50.742;6.432;2022-07-23T02:18:45;17.37;;;13.63;;
50225;SDS011;36113;50.742;6.432;2022-07-23T02:21:11;19.38;;;14.57;;
50225;SDS011;36113;50.742;6.432;2022-07-23T02:23:37;18.60;;;13.93;;
50225;SDS011;36113;50.742;6.432;2022-07-23T02:26:02;18.00;;;14.50;;
50225;SDS011;36113;50.742;6.432;2022-07-23T02:28:27;19.03;;;16.13;;
50225;SDS011;36113;50.742;6.432;2022-07-23T02:30:53;22.57;;;16.10;;
50225;SDS011;36113;50.742;6.432;2022-07-23T02:33:18;19.77;;;16.00;;
50225;SDS011;36113;50.742;6.432;2022-07-23T02:35:43;27.20;;;17.17;;
50225;SDS011;36113;50.742;6.432;2022-07-23T02:38:09;23.30;;;16.93;;
50225;SDS011;36113;50.742;6.432;2022-07-23T02:40:34;21.13;;;16.53;;
50225;SDS011;36113;50.742;6.432;2022-07-23T02:42:59;24.83;;;18.80;;
50225;SDS011;36113;50.742;6.432;2022-07-23T02:45:25;24.70;;;19.57;;
50225;SDS011;36113;50.742;6.432;2022-07-23T02:47:50;22.27;;;18.00;;
50225;SDS011;36113;50.742;6.432;2022-07-23T02:50:15;24.30;;;18.17;;
50225;SDS011;36113;50.742;6.432;2022-07-23T02:52:41;25.93;;;18.57;;
50225;SDS011;36113;50.742;6.432;2022-07-23T02:55:06;20.53;;;17.70;;
50225;SDS011;36113;50.742;6.432;2022-07-23T02:57:32;22.60;;;18.50;;
50225;SDS011;36113;50.742;6.432;2022-07-23T02:59:58;22.47;;;18.07;;
50225;SDS011;36113;50.742;6.432;2022-07-23T03:02:23;24.60;;;18.07;;
50225;SDS011;36113;50.742;6.432;2022-07-23T03:04:48;24.27;;;18.20;;
50225;SDS011;36113;50.742;6.432;2022-07-23T03:07:15;21.00;;;17.23;;
50225;SDS011;36113;50.742;6.432;2022-07-23T03:09:41;20.25;;;16.77;;
50225;SDS011;36113;50.742;6.432;2022-07-23T03:12:06;19.10;;;16.27;;
50225;SDS011;36113;50.742;6.432;2022-07-23T03:14:32;25.63;;;16.60;;
50225;SDS011;36113;50.742;6.432;2022-07-23T03:16:57;22.53;;;18.30;;
50225;SDS011;36113;50.742;6.432;2022-07-23T03:21:49;22.20;;;15.95;;
50225;SDS011;36113;50.742;6.432;2022-07-23T03:24:15;21.57;;;16.97;;
50225;SDS011;36113;50.742;6.432;2022-07-23T03:26:42;21.08;;;17.08;;
50225;SDS011;36113;50.742;6.432;2022-07-23T03:29:08;22.13;;;17.08;;
50225;SDS011;36113;50.742;6.432;2022-07-23T03:31:33;21.00;;;17.13;;
50225;SDS011;36113;50.742;6.432;2022-07-23T03:33:58;22.13;;;16.47;;
50225;SDS011;36113;50.742;6.432;2022-07-23T03:36:24;22.77;;;17.90;;
50225;SDS011;36113;50.742;6.432;2022-07-23T03:38:50;20.77;;;16.77;;
50225;SDS011;36113;50.742;6.432;2022-07-23T03:41:15;25.20;;;18.67;;
50225;SDS011;36113;50.742;6.432;2022-07-23T03:43:41;21.73;;;17.00;;
50225;SDS011;36113;50.742;6.432;2022-07-23T03:46:06;21.10;;;17.67;;
50225;SDS011;36113;50.742;6.432;2022-07-23T03:48:32;25.98;;;18.42;;
50225;SDS011;36113;50.742;6.432;2022-07-23T03:50:57;22.73;;;18.20;;
50225;SDS011;36113;50.742;6.432;2022-07-23T03:53:23;22.17;;;18.23;;
50225;SDS011;36113;50.742;6.432;2022-07-23T03:55:48;25.50;;;18.58;;
50225;SDS011;36113;50.742;6.432;2022-07-23T03:58:13;21.23;;;17.63;;
50225;SDS011;36113;50.742;6.432;2022-07-23T04:00:39;23.10;;;19.20;;
50225;SDS011;36113;50.742;6.432;2022-07-23T04:03:04;24.43;;;18.80;;
50225;SDS011;36113;50.742;6.432;2022-07-23T04:05:29;25.77;;;19.00;;
50225;SDS011;36113;50.742;6.432;2022-07-23T04:07:54;29.83;;;21.33;;
50225;SDS011;36113;50.742;6.432;2022-07-23T04:10:20;28.63;;;20.53;;
50225;SDS011;36113;50.742;6.432;2022-07-23T04:12:46;28.50;;;20.50;;
50225;SDS011;36113;50.742;6.432;2022-07-23T04:15:11;26.07;;;20.73;;
50225;SDS011;36113;50.742;6.432;2022-07-23T04:17:36;30.03;;;20.67;;
50225;SDS011;36113;50.742;6.432;2022-07-23T04:20:02;30.70;;;20.57;;
50225;SDS011;36113;50.742;6.432;2022-07-23T04:22:28;28.17;;;20.50;;
50225;SDS011;36113;50.742;6.432;2022-07-23T04:24:53;26.77;;;20.17;;
50225;SDS011;36113;50.742;6.432;2022-07-23T04:27:18;29.02;;;20.60;;
50225;SDS011;36113;50.742;6.432;2022-07-23T04:29:44;31.57;;;21.27;;
50225;SDS011;36113;50.742;6.432;2022-07-23T04:32:09;30.80;;;19.90;;
50225;SDS011;36113;50.742;6.432;2022-07-23T04:34:34;28.77;;;20.42;;
50225;SDS011;36113;50.742;6.432;2022-07-23T04:37:01;25.80;;;19.60;;
50225;SDS011;36113;50.742;6.432;2022-07-23T04:39:26;25.37;;;19.07;;
50225;SDS011;36113;50.742;6.432;2022-07-23T04:41:51;31.23;;;19.40;;
50225;SDS011;36113;50.742;6.432;2022-07-23T04:44:17;25.73;;;18.37;;
50225;SDS011;36113;50.742;6.432;2022-07-23T04:46:42;26.80;;;18.47;;
50225;SDS011;36113;50.742;6.432;2022-07-23T04:49:07;22.60;;;18.43;;
50225;SDS011;36113;50.742;6.432;2022-07-23T04:51:33;22.13;;;17.38;;
50225;SDS011;36113;50.742;6.432;2022-07-23T04:53:58;25.67;;;18.10;;
50225;SDS011;36113;50.742;6.432;2022-07-23T04:56:23;22.73;;;17.67;;
50225;SDS011;36113;50.742;6.432;2022-07-23T04:58:49;21.83;;;17.03;;
50225;SDS011;36113;50.742;6.432;2022-07-23T05:01:14;19.30;;;16.37;;
50225;SDS011;36113;50.742;6.432;2022-07-23T05:03:39;29.17;;;17.53;;
50225;SDS011;36113;50.742;6.432;2022-07-23T05:06:05;24.43;;;18.43;;
50225;SDS011;36113;50.742;6.432;2022-07-23T05:08:30;24.60;;;19.53;;
50225;SDS011;36113;50.742;6.432;2022-07-23T05:10:55;21.93;;;16.83;;
50225;SDS011;36113;50.742;6.432;2022-07-23T05:13:21;20.03;;;17.70;;
50225;SDS011;36113;50.742;6.432;2022-07-23T05:15:46;23.50;;;18.07;;
50225;SDS011;36113;50.742;6.432;2022-07-23T05:18:12;20.70;;;17.63;;
50225;SDS011;36113;50.742;6.432;2022-07-23T05:20:37;22.00;;;17.77;;
50225;SDS011;36113;50.742;6.432;2022-07-23T05:23:03;27.53;;;18.40;;
50225;SDS011;36113;50.742;6.432;2022-07-23T05:25:28;20.47;;;17.13;;
50225;SDS011;36113;50.742;6.432;2022-07-23T05:27:54;22.27;;;15.77;;
50225;SDS011;36113;50.742;6.432;2022-07-23T05:30:19;21.27;;;15.30;;
50225;SDS011;36113;50.742;6.432;2022-07-23T05:32:45;18.07;;;14.90;;
50225;SDS011;36113;50.742;6.432;2022-07-23T05:35:10;16.20;;;14.50;;
50225;SDS011;36113;50.742;6.432;2022-07-23T05:37:36;17.13;;;14.40;;
50225;SDS011;36113;50.742;6.432;2022-07-23T05:40:05;22.73;;;17.50;;
50225;SDS011;36113;50.742;6.432;2022-07-23T05:42:36;26.48;;;18.25;;
50225;SDS011;36113;50.742;6.432;2022-07-23T05:45:02;22.70;;;17.13;;
50225;SDS011;36113;50.742;6.432;2022-07-23T05:47:28;19.50;;;16.85;;
50225;SDS011;36113;50.742;6.432;2022-07-23T05:49:54;21.27;;;18.57;;
50225;SDS011;36113;50.742;6.432;2022-07-23T05:52:19;17.30;;;15.17;;
50225;SDS011;36113;50.742;6.432;2022-07-23T05:54:44;22.50;;;16.77;;
50225;SDS011;36113;50.742;6.432;2022-07-23T05:57:10;18.53;;;14.90;;
50225;SDS011;36113;50.742;6.432;2022-07-23T05:59:35;18.50;;;14.50;;
50225;SDS011;36113;50.742;6.432;2022-07-23T06:02:00;17.43;;;14.87;;
50225;SDS011;36113;50.742;6.432;2022-07-23T06:04:26;19.07;;;14.00;;
50225;SDS011;36113;50.742;6.432;2022-07-23T06:06:51;18.40;;;13.73;;
50225;SDS011;36113;50.742;6.432;2022-07-23T06:09:17;13.13;;;11.73;;
50225;SDS011;36113;50.742;6.432;2022-07-23T06:11:43;16.45;;;14.02;;
50225;SDS011;36113;50.742;6.432;2022-07-23T06:14:08;19.33;;;14.67;;
50225;SDS011;36113;50.742;6.432;2022-07-23T06:16:34;16.50;;;13.67;;
50225;SDS011;36113;50.742;6.432;2022-07-23T06:18:59;14.60;;;13.00;;
50225;SDS011;36113;50.742;6.432;2022-07-23T06:21:24;15.23;;;12.90;;
50225;SDS011;36113;50.742;6.432;2022-07-23T06:23:50;12.87;;;11.33;;
50225;SDS011;36113;50.742;6.432;2022-07-23T06:26:15;13.60;;;11.50;;
50225;SDS011;36113;50.742;6.432;2022-07-23T06:28:40;11.27;;;10.07;;
50225;SDS011;36113;50.742;6.432;2022-07-23T06:31:06;12.50;;;10.47;;
50225;SDS011;36113;50.742;6.432;2022-07-23T06:33:31;16.00;;;11.27;;
50225;SDS011;36113;50.742;6.432;2022-07-23T06:35:56;11.33;;;9.10;;
50225;SDS011;36113;50.742;6.432;2022-07-23T06:38:22;9.53;;;8.37;;
50225;SDS011;36113;50.742;6.432;2022-07-23T06:40:47;10.73;;;8.70;;
50225;SDS011;36113;50.742;6.432;2022-07-23T06:43:12;9.80;;;8.00;;
50225;SDS011;36113;50.742;6.432;2022-07-23T06:45:38;11.03;;;7.97;;
50225;SDS011;36113;50.742;6.432;2022-07-23T06:48:03;12.00;;;7.60;;
50225;SDS011;36113;50.742;6.432;2022-07-23T06:50:29;16.13;;;11.27;;
50225;SDS011;36113;50.742;6.432;2022-07-23T06:52:57;13.80;;;11.25;;
50225;SDS011;36113;50.742;6.432;2022-07-23T06:55:22;18.53;;;11.63;;
50225;SDS011;36113;50.742;6.432;2022-07-23T06:57:48;14.13;;;10.83;;
50225;SDS011;36113;50.742;6.432;2022-07-23T07:00:13;14.60;;;11.97;;
50225;SDS011;36113;50.742;6.432;2022-07-23T07:02:39;15.13;;;10.40;;
50225;SDS011;36113;50.742;6.432;2022-07-23T07:05:04;13.07;;;9.67;;
50225;SDS011;36113;50.742;6.432;2022-07-23T07:07:30;10.80;;;9.23;;
50225;SDS011;36113;50.742;6.432;2022-07-23T07:09:55;11.87;;;9.07;;
50225;SDS011;36113;50.742;6.432;2022-07-23T07:12:20;14.23;;;10.33;;
50225;SDS011;36113;50.742;6.432;2022-07-23T07:14:46;15.90;;;11.47;;
50225;SDS011;36113;50.742;6.432;2022-07-23T07:17:11;17.70;;;14.33;;
50225;SDS011;36113;50.742;6.432;2022-07-23T07:19:37;17.53;;;13.40;;
50225;SDS011;36113;50.742;6.432;2022-07-23T07:22:02;19.23;;;12.73;;
50225;SDS011;36113;50.742;6.432;2022-07-23T07:24:28;18.37;;;12.93;;
50225;SDS011;36113;50.742;6.432;2022-07-23T07:26:53;14.67;;;12.57;;
50225;SDS011;36113;50.742;6.432;2022-07-23T07:29:18;17.47;;;13.73;;
50225;SDS011;36113;50.742;6.432;2022-07-23T07:31:44;21.77;;;15.23;;
50225;SDS011;36113;50.742;6.432;2022-07-23T07:34:09;28.20;;;17.30;;
50225;SDS011;36113;50.742;6.432;2022-07-23T07:36:35;26.43;;;17.90;;
50225;SDS011;36113;50.742;6.432;2022-07-23T07:39:02;25.98;;;18.15;;
50225;SDS011;36113;50.742;6.432;2022-07-23T07:41:28;27.08;;;17.70;;
50225;SDS011;36113;50.742;6.432;2022-07-23T07:43:54;29.87;;;19.97;;
50225;SDS011;36113;50.742;6.432;2022-07-23T07:46:19;25.37;;;17.83;;
50225;SDS011;36113;50.742;6.432;2022-07-23T07:48:45;21.60;;;15.80;;
50225;SDS011;36113;50.742;6.432;2022-07-23T07:51:10;22.93;;;16.53;;
50225;SDS011;36113;50.742;6.432;2022-07-23T07:53:35;18.90;;;14.23;;
50225;SDS011;36113;50.742;6.432;2022-07-23T07:56:01;18.97;;;14.03;;
50225;SDS011;36113;50.742;6.432;2022-07-23T07:58:26;20.93;;;14.47;;
50225;SDS011;36113;50.742;6.432;2022-07-23T08:00:51;18.53;;;14.67;;
50225;SDS011;36113;50.742;6.432;2022-07-23T08:03:17;18.40;;;12.20;;
50225;SDS011;36113;50.742;6.432;2022-07-23T08:05:42;19.93;;;13.27;;
50225;SDS011;36113;50.742;6.432;2022-07-23T08:08:07;16.60;;;12.33;;
50225;SDS011;36113;50.742;6.432;2022-07-23T08:10:34;27.80;;;13.52;;
50225;SDS011;36113;50.742;6.432;2022-07-23T08:13:00;16.90;;;10.65;;
50225;SDS011;36113;50.742;6.432;2022-07-23T08:15:26;19.00;;;12.47;;
50225;SDS011;36113;50.742;6.432;2022-07-23T08:17:53;20.60;;;13.13;;
50225;SDS011;36113;50.742;6.432;2022-07-23T08:20:20;20.92;;;12.73;;
50225;SDS011;36113;50.742;6.432;2022-07-23T08:22:50;17.67;;;12.48;;
50225;SDS011;36113;50.742;6.432;2022-07-23T08:25:17;20.05;;;13.43;;
50225;SDS011;36113;50.742;6.432;2022-07-23T08:27:46;25.73;;;16.25;;
50225;SDS011;36113;50.742;6.432;2022-07-23T08:30:12;22.30;;;15.07;;
50225;SDS011;36113;50.742;6.432;2022-07-23T08:32:50;18.67;;;14.07;;
50225;SDS011;36113;50.742;6.432;2022-07-23T08:35:20;19.63;;;13.75;;
50225;SDS011;36113;50.742;6.432;2022-07-23T08:37:47;18.10;;;13.40;;
50225;SDS011;36113;50.742;6.432;2022-07-23T08:40:12;17.13;;;12.77;;
50225;SDS011;36113;50.742;6.432;2022-07-23T08:42:38;14.83;;;11.20;;
50225;SDS011;36113;50.742;6.432;2022-07-23T08:45:04;11.70;;;9.97;;
50225;SDS011;36113;50.742;6.432;2022-07-23T08:47:32;17.42;;;12.35;;
50225;SDS011;36113;50.742;6.432;2022-07-23T08:49:58;13.32;;;9.95;;
50225;SDS011;36113;50.742;6.432;2022-07-23T08:52:24;16.47;;;12.10;;
50225;SDS011;36113;50.742;6.432;2022-07-23T08:54:50;12.68;;;10.05;;
50225;SDS011;36113;50.742;6.432;2022-07-23T08:57:16;13.15;;;9.52;;
50225;SDS011;36113;50.742;6.432;2022-07-23T08:59:41;15.93;;;11.17;;
50225;SDS011;36113;50.742;6.432;2022-07-23T09:02:07;11.23;;;9.73;;
50225;SDS011;36113;50.742;6.432;2022-07-23T09:04:32;16.23;;;12.87;;
50225;SDS011;36113;50.742;6.432;2022-07-23T09:06:58;16.17;;;13.00;;
50225;SDS011;36113;50.742;6.432;2022-07-23T09:09:24;19.55;;;12.65;;
50225;SDS011;36113;50.742;6.432;2022-07-23T09:14:44;18.45;;;12.95;;
50225;SDS011;36113;50.742;6.432;2022-07-23T09:17:15;17.23;;;11.95;;
50225;SDS011;36113;50.742;6.432;2022-07-23T09:19:42;15.50;;;12.52;;
50225;SDS011;36113;50.742;6.432;2022-07-23T09:30:32;20.90;;;15.23;;
50225;SDS011;36113;50.742;6.432;2022-07-23T09:33:12;23.13;;;17.83;;
50225;SDS011;36113;50.742;6.432;2022-07-23T09:35:49;18.88;;;16.45;;
50225;SDS011;36113;50.742;6.432;2022-07-23T09:38:17;20.02;;;16.45;;
50225;SDS011;36113;50.742;6.432;2022-07-23T09:40:45;18.63;;;16.63;;
50225;SDS011;36113;50.742;6.432;2022-07-23T09:43:11;19.17;;;17.13;;
50225;SDS011;36113;50.742;6.432;2022-07-23T09:45:38;19.13;;;15.07;;
50225;SDS011;36113;50.742;6.432;2022-07-23T09:50:37;19.25;;;16.90;;
50225;SDS011;36113;50.742;6.432;2022-07-23T09:53:03;19.13;;;15.93;;
50225;SDS011;36113;50.742;6.432;2022-07-23T09:55:32;19.50;;;17.37;;
50225;SDS011;36113;50.742;6.432;2022-07-23T09:58:01;18.00;;;16.23;;
50225;SDS011;36113;50.742;6.432;2022-07-23T10:00:27;21.02;;;18.83;;
50225;SDS011;36113;50.742;6.432;2022-07-23T10:02:54;19.52;;;17.45;;
50225;SDS011;36113;50.742;6.432;2022-07-23T10:05:20;24.83;;;20.47;;
50225;SDS011;36113;50.742;6.432;2022-07-23T10:07:46;20.47;;;18.30;;
50225;SDS011;36113;50.742;6.432;2022-07-23T10:10:11;19.97;;;17.70;;
50225;SDS011;36113;50.742;6.432;2022-07-23T10:12:39;23.38;;;19.13;;
50225;SDS011;36113;50.742;6.432;2022-07-23T10:15:16;22.35;;;18.98;;
50225;SDS011;36113;50.742;6.432;2022-07-23T10:17:42;23.10;;;17.43;;
50225;SDS011;36113;50.742;6.432;2022-07-23T10:20:08;17.43;;;15.83;;
50225;SDS011;36113;50.742;6.432;2022-07-23T10:22:34;15.50;;;12.67;;
50225;SDS011;36113;50.742;6.432;2022-07-23T10:28:28;17.05;;;14.93;;
50225;SDS011;36113;50.742;6.432;2022-07-23T10:36:18;11.13;;;10.23;;
50225;SDS011;36113;50.742;6.432;2022-07-23T10:41:12;7.73;;;7.03;;
50225;SDS011;36113;50.742;6.432;2022-07-23T10:43:37;6.60;;;6.00;;
50225;SDS011;36113;50.742;6.432;2022-07-23T10:49:20;9.45;;;6.68;;
50225;SDS011;36113;50.742;6.432;2022-07-23T10:57:10;3.65;;;3.35;;
50225;SDS011;36113;50.742;6.432;2022-07-23T11:02:44;2.97;;;2.40;;
50225;SDS011;36113;50.742;6.432;2022-07-23T11:05:17;2.47;;;2.28;;
50225;SDS011;36113;50.742;6.432;2022-07-23T11:24:03;3.72;;;3.50;;
50225;SDS011;36113;50.742;6.432;2022-07-23T11:31:53;5.30;;;4.75;;
50225;SDS011;36113;50.742;6.432;2022-07-23T11:37:31;6.35;;;5.13;;
50225;SDS011;36113;50.742;6.432;2022-07-23T11:40:02;6.78;;;3.85;;
50225;SDS011;36113;50.742;6.432;2022-07-23T11:42:32;3.90;;;3.58;;
50225;SDS011;36113;50.742;6.432;2022-07-23T11:44:57;6.63;;;3.87;;
50225;SDS011;36113;50.742;6.432;2022-07-23T11:47:23;9.67;;;4.13;;
50225;SDS011;36113;50.742;6.432;2022-07-23T11:52:19;4.50;;;4.10;;
50225;SDS011;36113;50.742;6.432;2022-07-23T11:57:19;4.57;;;3.67;;
50225;SDS011;36113;50.742;6.432;2022-07-23T11:59:46;8.65;;;3.72;;
50225;SDS011;36113;50.742;6.432;2022-07-23T12:02:15;4.03;;;3.65;;
50225;SDS011;36113;50.742;6.432;2022-07-23T12:04:44;6.07;;;4.70;;
50225;SDS011;36113;50.742;6.432;2022-07-23T12:09:56;6.22;;;5.60;;
50225;SDS011;36113;50.742;6.432;2022-07-23T12:12:24;8.07;;;5.28;;
50225;SDS011;36113;50.742;6.432;2022-07-23T12:17:27;5.72;;;5.20;;
50225;SDS011;36113;50.742;6.432;2022-07-23T12:19:54;8.13;;;4.75;;
50225;SDS011;36113;50.742;6.432;2022-07-23T12:22:22;4.85;;;4.43;;
50225;SDS011;36113;50.742;6.432;2022-07-23T12:24:56;7.90;;;5.90;;
50225;SDS011;36113;50.742;6.432;2022-07-23T12:27:21;4.85;;;4.53;;
50225;SDS011;36113;50.742;6.432;2022-07-23T12:29:47;5.97;;;5.25;;
50225;SDS011;36113;50.742;6.432;2022-07-23T12:32:20;5.47;;;3.90;;
50225;SDS011;36113;50.742;6.432;2022-07-23T12:34:46;3.85;;;3.55;;
50225;SDS011;36113;50.742;6.432;2022-07-23T12:37:30;5.80;;;4.60;;
50225;SDS011;36113;50.742;6.432;2022-07-23T12:39:57;4.13;;;3.65;;
50225;SDS011;36113;50.742;6.432;2022-07-23T12:42:23;5.72;;;4.60;;
50225;SDS011;36113;50.742;6.432;2022-07-23T12:45:07;5.32;;;3.60;;
50225;SDS011;36113;50.742;6.432;2022-07-23T12:53:04;5.70;;;5.20;;
50225;SDS011;36113;50.742;6.432;2022-07-23T12:55:34;8.90;;;5.15;;
50225;SDS011;36113;50.742;6.432;2022-07-23T12:58:08;9.32;;;5.60;;
50225;SDS011;36113;50.742;6.432;2022-07-23T13:00:50;6.05;;;5.20;;
50225;SDS011;36113;50.742;6.432;2022-07-23T13:03:29;5.05;;;4.63;;
50225;SDS011;36113;50.742;6.432;2022-07-23T13:06:03;5.88;;;5.28;;
50225;SDS011;36113;50.742;6.432;2022-07-23T13:08:31;6.63;;;4.38;;
50225;SDS011;36113;50.742;6.432;2022-07-23T13:10:58;5.20;;;4.07;;
50225;SDS011;36113;50.742;6.432;2022-07-23T13:15:50;6.68;;;3.63;;
50225;SDS011;36113;50.742;6.432;2022-07-23T13:18:16;3.27;;;3.07;;
50225;SDS011;36113;50.742;6.432;2022-07-23T13:20:43;3.78;;;3.45;;
50225;SDS011;36113;50.742;6.432;2022-07-23T13:23:10;8.55;;;3.15;;
50225;SDS011;36113;50.742;6.432;2022-07-23T13:25:35;5.63;;;3.60;;
50225;SDS011;36113;50.742;6.432;2022-07-23T13:28:00;6.67;;;3.77;;
50225;SDS011;36113;50.742;6.432;2022-07-23T13:30:26;4.90;;;3.90;;
50225;SDS011;36113;50.742;6.432;2022-07-23T13:32:52;4.95;;;4.05;;
50225;SDS011;36113;50.742;6.432;2022-07-23T13:35:17;5.93;;;3.83;;
50225;SDS011;36113;50.742;6.432;2022-07-23T13:37:42;5.80;;;4.10;;
50225;SDS011;36113;50.742;6.432;2022-07-23T13:40:08;7.60;;;4.13;;
50225;SDS011;36113;50.742;6.432;2022-07-23T13:42:33;15.27;;;4.88;;
50225;SDS011;36113;50.742;6.432;2022-07-23T13:44:59;9.83;;;3.73;;
50225;SDS011;36113;50.742;6.432;2022-07-23T13:47:24;6.60;;;5.23;;
50225;SDS011;36113;50.742;6.432;2022-07-23T13:49:50;4.23;;;3.63;;
50225;SDS011;36113;50.742;6.432;2022-07-23T13:52:15;4.90;;;3.03;;
50225;SDS011;36113;50.742;6.432;2022-07-23T13:54:41;5.57;;;4.37;;
50225;SDS011;36113;50.742;6.432;2022-07-23T13:57:06;4.27;;;3.33;;
50225;SDS011;36113;50.742;6.432;2022-07-23T13:59:34;5.15;;;4.57;;
50225;SDS011;36113;50.742;6.432;2022-07-23T14:02:00;3.83;;;3.53;;
50225;SDS011;36113;50.742;6.432;2022-07-23T14:04:27;4.13;;;3.72;;
50225;SDS011;36113;50.742;6.432;2022-07-23T14:06:52;3.80;;;3.50;;
50225;SDS011;36113;50.742;6.432;2022-07-23T14:09:17;5.30;;;4.57;;
50225;SDS011;36113;50.742;6.432;2022-07-23T14:11:43;6.90;;;4.47;;
50225;SDS011;36113;50.742;6.432;2022-07-23T14:14:08;5.77;;;3.73;;
50225;SDS011;36113;50.742;6.432;2022-07-23T14:16:33;5.20;;;3.33;;
50225;SDS011;36113;50.742;6.432;2022-07-23T14:18:59;6.17;;;3.93;;
50225;SDS011;36113;50.742;6.432;2022-07-23T14:21:24;6.27;;;4.50;;
50225;SDS011;36113;50.742;6.432;2022-07-23T14:23:49;6.33;;;4.47;;
50225;SDS011;36113;50.742;6.432;2022-07-23T14:26:15;6.00;;;4.73;;
50225;SDS011;36113;50.742;6.432;2022-07-23T14:28:40;3.93;;;3.63;;
50225;SDS011;36113;50.742;6.432;2022-07-23T14:31:05;5.33;;;3.40;;
50225;SDS011;36113;50.742;6.432;2022-07-23T14:33:31;5.50;;;3.50;;
50225;SDS011;36113;50.742;6.432;2022-07-23T14:35:56;5.97;;;3.63;;
50225;SDS011;36113;50.742;6.432;2022-07-23T14:38:23;4.20;;;3.88;;
50225;SDS011;36113;50.742;6.432;2022-07-23T14:40:49;3.77;;;3.37;;
50225;SDS011;36113;50.742;6.432;2022-07-23T14:43:14;4.57;;;3.97;;
50225;SDS011;36113;50.742;6.432;2022-07-23T14:45:39;6.90;;;4.00;;
50225;SDS011;36113;50.742;6.432;2022-07-23T14:48:05;4.57;;;4.17;;
50225;SDS011;36113;50.742;6.432;2022-07-23T14:50:31;4.40;;;4.00;;
50225;SDS011;36113;50.742;6.432;2022-07-23T14:52:56;4.07;;;3.80;;
50225;SDS011;36113;50.742;6.432;2022-07-23T14:55:21;4.60;;;4.30;;
50225;SDS011;36113;50.742;6.432;2022-07-23T14:57:47;6.77;;;3.63;;
50225;SDS011;36113;50.742;6.432;2022-07-23T15:00:12;4.70;;;4.07;;
50225;SDS011;36113;50.742;6.432;2022-07-23T15:02:38;3.70;;;3.40;;
50225;SDS011;36113;50.742;6.432;2022-07-23T15:05:03;3.97;;;3.67;;
50225;SDS011;36113;50.742;6.432;2022-07-23T15:07:29;6.85;;;4.70;;
50225;SDS011;36113;50.742;6.432;2022-07-23T15:09:55;3.80;;;3.42;;
50225;SDS011;36113;50.742;6.432;2022-07-23T15:12:21;5.47;;;3.97;;
50225;SDS011;36113;50.742;6.432;2022-07-23T15:14:46;5.10;;;3.60;;
50225;SDS011;36113;50.742;6.432;2022-07-23T15:17:12;4.73;;;4.33;;
50225;SDS011;36113;50.742;6.432;2022-07-23T15:19:37;5.10;;;4.07;;
50225;SDS011;36113;50.742;6.432;2022-07-23T15:22:03;4.97;;;3.93;;
50225;SDS011;36113;50.742;6.432;2022-07-23T15:24:29;5.03;;;3.40;;
50225;SDS011;36113;50.742;6.432;2022-07-23T15:26:55;6.05;;;3.70;;
50225;SDS011;36113;50.742;6.432;2022-07-23T15:29:21;5.25;;;3.22;;
50225;SDS011;36113;50.742;6.432;2022-07-23T15:31:46;4.00;;;3.70;;
50225;SDS011;36113;50.742;6.432;2022-07-23T15:34:12;3.55;;;3.28;;
50225;SDS011;36113;50.742;6.432;2022-07-23T15:36:38;3.80;;;3.50;;
50225;SDS011;36113;50.742;6.432;2022-07-23T15:39:03;3.50;;;3.20;;
50225;SDS011;36113;50.742;6.432;2022-07-23T15:41:29;3.97;;;3.57;;
50225;SDS011;36113;50.742;6.432;2022-07-23T15:43:54;3.83;;;3.00;;
50225;SDS011;36113;50.742;6.432;2022-07-23T15:46:20;5.10;;;4.33;;
50225;SDS011;36113;50.742;6.432;2022-07-23T15:48:46;6.80;;;4.88;;
50225;SDS011;36113;50.742;6.432;2022-07-23T15:51:12;7.27;;;3.83;;